sensor_id;sensor_type;location;lat;lon;timestamp;P1;durP1;ratioP1;P2;durP2;ratioP2
52126;SDS011;38120;53.176;6.614;2022-10-26T00:00:06;11.98;;;7.90;;
52126;SDS011;38120;53.176;6.614;2022-10-26T00:04:57;14.13;;;8.07;;
52126;SDS011;38120;53.176;6.614;2022-10-26T00:07:23;14.87;;;8.30;;
52126;SDS011;38120;53.176;6.614;2022-10-26T00:09:49;15.00;;;7.63;;
52126;SDS011;38120;53.176;6.614;2022-10-26T00:12:14;17.47;;;7.73;;
52126;SDS011;38120;53.176;6.614;2022-10-26T00:14:40;13.55;;;8.35;;
52126;SDS011;38120;53.176;6.614;2022-10-26T00:17:06;13.63;;;8.03;;
52126;SDS011;38120;53.176;6.614;2022-10-26T00:19:32;17.20;;;8.40;;
52126;SDS011;38120;53.176;6.614;2022-10-26T00:21:59;15.98;;;8.23;;
52126;SDS011;38120;53.176;6.614;2022-10-26T00:24:25;12.00;;;8.00;;
52126;SDS011;38120;53.176;6.614;2022-10-26T00:26:50;13.83;;;8.30;;
52126;SDS011;38120;53.176;6.614;2022-10-26T00:29:16;14.07;;;8.80;;
52126;SDS011;38120;53.176;6.614;2022-10-26T00:31:42;11.50;;;7.90;;
52126;SDS011;38120;53.176;6.614;2022-10-26T00:34:08;16.33;;;8.13;;
52126;SDS011;38120;53.176;6.614;2022-10-26T00:36:35;14.25;;;7.82;;
52126;SDS011;38120;53.176;6.614;2022-10-26T00:39:01;11.35;;;7.20;;
52126;SDS011;38120;53.176;6.614;2022-10-26T00:41:28;14.68;;;8.00;;
52126;SDS011;38120;53.176;6.614;2022-10-26T00:43:55;10.93;;;7.28;;
52126;SDS011;38120;53.176;6.614;2022-10-26T00:49:03;15.18;;;7.57;;
52126;SDS011;38120;53.176;6.614;2022-10-26T00:51:45;16.25;;;8.23;;
52126;SDS011;38120;53.176;6.614;2022-10-26T00:54:16;12.95;;;7.35;;
52126;SDS011;38120;53.176;6.614;2022-10-26T00:56:43;11.57;;;7.55;;
52126;SDS011;38120;53.176;6.614;2022-10-26T00:59:11;13.57;;;7.70;;
52126;SDS011;38120;53.176;6.614;2022-10-26T01:01:39;12.38;;;8.50;;
52126;SDS011;38120;53.176;6.614;2022-10-26T01:04:08;13.00;;;8.52;;
52126;SDS011;38120;53.176;6.614;2022-10-26T01:06:34;15.65;;;9.15;;
52126;SDS011;38120;53.176;6.614;2022-10-26T01:09:02;12.45;;;9.05;;
52126;SDS011;38120;53.176;6.614;2022-10-26T01:11:28;13.02;;;7.75;;
52126;SDS011;38120;53.176;6.614;2022-10-26T01:13:54;17.05;;;10.38;;
52126;SDS011;38120;53.176;6.614;2022-10-26T01:18:56;15.25;;;9.63;;
52126;SDS011;38120;53.176;6.614;2022-10-26T01:32:31;19.25;;;10.75;;
52126;SDS011;38120;53.176;6.614;2022-10-26T01:35:08;14.90;;;9.38;;
52126;SDS011;38120;53.176;6.614;2022-10-26T01:38:13;16.55;;;11.25;;
52126;SDS011;38120;53.176;6.614;2022-10-26T01:40:44;14.30;;;9.43;;
52126;SDS011;38120;53.176;6.614;2022-10-26T01:43:18;17.48;;;9.90;;
52126;SDS011;38120;53.176;6.614;2022-10-26T01:48:12;13.80;;;9.77;;
52126;SDS011;38120;53.176;6.614;2022-10-26T01:50:42;15.20;;;10.73;;
52126;SDS011;38120;53.176;6.614;2022-10-26T01:53:11;17.13;;;11.23;;
52126;SDS011;38120;53.176;6.614;2022-10-26T01:55:49;20.10;;;11.52;;
52126;SDS011;38120;53.176;6.614;2022-10-26T02:01:05;17.00;;;10.80;;
52126;SDS011;38120;53.176;6.614;2022-10-26T02:09:28;15.65;;;11.10;;
52126;SDS011;38120;53.176;6.614;2022-10-26T02:12:08;15.63;;;10.95;;
52126;SDS011;38120;53.176;6.614;2022-10-26T02:14:49;14.77;;;10.82;;
52126;SDS011;38120;53.176;6.614;2022-10-26T02:17:28;16.70;;;11.23;;
52126;SDS011;38120;53.176;6.614;2022-10-26T02:20:11;15.50;;;10.73;;
52126;SDS011;38120;53.176;6.614;2022-10-26T02:22:44;15.20;;;10.98;;
52126;SDS011;38120;53.176;6.614;2022-10-26T02:26:14;16.73;;;10.57;;
52126;SDS011;38120;53.176;6.614;2022-10-26T02:28:14;16.63;;;10.90;;
52126;SDS011;38120;53.176;6.614;2022-10-26T02:30:44;15.75;;;11.45;;
52126;SDS011;38120;53.176;6.614;2022-10-26T02:33:11;14.27;;;10.35;;
52126;SDS011;38120;53.176;6.614;2022-10-26T02:35:39;14.95;;;10.73;;
52126;SDS011;38120;53.176;6.614;2022-10-26T02:38:08;16.63;;;12.07;;
52126;SDS011;38120;53.176;6.614;2022-10-26T02:40:35;13.57;;;10.30;;
52126;SDS011;38120;53.176;6.614;2022-10-26T02:43:06;17.10;;;11.57;;
52126;SDS011;38120;53.176;6.614;2022-10-26T02:45:42;18.30;;;11.15;;
52126;SDS011;38120;53.176;6.614;2022-10-26T02:48:12;15.63;;;10.90;;
52126;SDS011;38120;53.176;6.614;2022-10-26T02:50:49;18.45;;;12.35;;
52126;SDS011;38120;53.176;6.614;2022-10-26T02:53:39;15.50;;;11.43;;
52126;SDS011;38120;53.176;6.614;2022-10-26T02:56:07;21.55;;;13.52;;
52126;SDS011;38120;53.176;6.614;2022-10-26T02:58:41;19.02;;;12.63;;
52126;SDS011;38120;53.176;6.614;2022-10-26T03:01:11;17.40;;;11.82;;
52126;SDS011;38120;53.176;6.614;2022-10-26T03:03:37;17.80;;;11.95;;
52126;SDS011;38120;53.176;6.614;2022-10-26T03:06:03;18.63;;;12.82;;
52126;SDS011;38120;53.176;6.614;2022-10-26T03:08:29;17.40;;;11.57;;
52126;SDS011;38120;53.176;6.614;2022-10-26T03:10:54;18.05;;;12.45;;
52126;SDS011;38120;53.176;6.614;2022-10-26T03:13:20;17.17;;;13.10;;
52126;SDS011;38120;53.176;6.614;2022-10-26T03:15:46;19.47;;;12.10;;
52126;SDS011;38120;53.176;6.614;2022-10-26T03:18:11;18.03;;;11.67;;
52126;SDS011;38120;53.176;6.614;2022-10-26T03:20:37;17.50;;;13.37;;
52126;SDS011;38120;53.176;6.614;2022-10-26T03:23:02;20.23;;;14.13;;
52126;SDS011;38120;53.176;6.614;2022-10-26T03:25:28;23.80;;;15.43;;
52126;SDS011;38120;53.176;6.614;2022-10-26T03:28:02;20.73;;;14.17;;
52126;SDS011;38120;53.176;6.614;2022-10-26T03:30:28;19.10;;;13.63;;
52126;SDS011;38120;53.176;6.614;2022-10-26T03:32:55;22.33;;;13.80;;
52126;SDS011;38120;53.176;6.614;2022-10-26T03:35:21;18.80;;;13.90;;
52126;SDS011;38120;53.176;6.614;2022-10-26T03:37:47;19.33;;;14.88;;
52126;SDS011;38120;53.176;6.614;2022-10-26T03:40:13;23.53;;;15.90;;
52126;SDS011;38120;53.176;6.614;2022-10-26T03:42:39;23.95;;;14.98;;
52126;SDS011;38120;53.176;6.614;2022-10-26T03:45:05;20.60;;;14.43;;
52126;SDS011;38120;53.176;6.614;2022-10-26T03:47:31;25.27;;;16.00;;
52126;SDS011;38120;53.176;6.614;2022-10-26T03:49:57;22.08;;;16.38;;
52126;SDS011;38120;53.176;6.614;2022-10-26T03:52:23;20.70;;;13.85;;
52126;SDS011;38120;53.176;6.614;2022-10-26T03:54:49;20.83;;;15.17;;
52126;SDS011;38120;53.176;6.614;2022-10-26T03:57:15;24.17;;;15.15;;
52126;SDS011;38120;53.176;6.614;2022-10-26T03:59:42;20.80;;;16.10;;
52126;SDS011;38120;53.176;6.614;2022-10-26T04:02:07;21.13;;;15.27;;
52126;SDS011;38120;53.176;6.614;2022-10-26T04:04:33;24.97;;;16.13;;
52126;SDS011;38120;53.176;6.614;2022-10-26T04:06:58;23.40;;;17.67;;
52126;SDS011;38120;53.176;6.614;2022-10-26T04:09:24;25.07;;;16.40;;
52126;SDS011;38120;53.176;6.614;2022-10-26T04:11:50;23.67;;;17.43;;
52126;SDS011;38120;53.176;6.614;2022-10-26T04:14:15;22.97;;;15.87;;
52126;SDS011;38120;53.176;6.614;2022-10-26T04:16:41;30.65;;;16.98;;
52126;SDS011;38120;53.176;6.614;2022-10-26T04:19:07;23.23;;;15.30;;
52126;SDS011;38120;53.176;6.614;2022-10-26T04:21:33;22.48;;;16.48;;
52126;SDS011;38120;53.176;6.614;2022-10-26T04:23:59;26.90;;;16.97;;
52126;SDS011;38120;53.176;6.614;2022-10-26T04:26:26;26.23;;;16.20;;
52126;SDS011;38120;53.176;6.614;2022-10-26T04:28:52;27.45;;;16.63;;
52126;SDS011;38120;53.176;6.614;2022-10-26T04:31:17;20.87;;;15.83;;
52126;SDS011;38120;53.176;6.614;2022-10-26T04:33:43;21.53;;;15.20;;
52126;SDS011;38120;53.176;6.614;2022-10-26T04:36:09;24.97;;;16.60;;
52126;SDS011;38120;53.176;6.614;2022-10-26T04:38:35;22.27;;;16.20;;
52126;SDS011;38120;53.176;6.614;2022-10-26T04:41:00;25.08;;;17.58;;
52126;SDS011;38120;53.176;6.614;2022-10-26T04:43:26;26.43;;;17.67;;
52126;SDS011;38120;53.176;6.614;2022-10-26T04:45:55;27.90;;;17.57;;
52126;SDS011;38120;53.176;6.614;2022-10-26T04:48:22;23.15;;;17.80;;
52126;SDS011;38120;53.176;6.614;2022-10-26T04:53:14;25.77;;;16.55;;
52126;SDS011;38120;53.176;6.614;2022-10-26T04:55:40;26.00;;;16.98;;
52126;SDS011;38120;53.176;6.614;2022-10-26T04:58:06;24.83;;;16.48;;
52126;SDS011;38120;53.176;6.614;2022-10-26T05:00:32;23.87;;;16.37;;
52126;SDS011;38120;53.176;6.614;2022-10-26T05:03:02;25.30;;;17.42;;
52126;SDS011;38120;53.176;6.614;2022-10-26T05:05:30;23.42;;;16.73;;
52126;SDS011;38120;53.176;6.614;2022-10-26T05:07:56;26.42;;;17.35;;
52126;SDS011;38120;53.176;6.614;2022-10-26T05:10:23;20.90;;;15.95;;
52126;SDS011;38120;53.176;6.614;2022-10-26T05:12:50;23.33;;;16.65;;
52126;SDS011;38120;53.176;6.614;2022-10-26T05:15:16;25.90;;;16.27;;
52126;SDS011;38120;53.176;6.614;2022-10-26T05:17:41;24.37;;;16.43;;
52126;SDS011;38120;53.176;6.614;2022-10-26T05:20:07;26.77;;;17.77;;
52126;SDS011;38120;53.176;6.614;2022-10-26T05:22:37;25.50;;;18.25;;
52126;SDS011;38120;53.176;6.614;2022-10-26T05:25:03;26.58;;;17.83;;
52126;SDS011;38120;53.176;6.614;2022-10-26T05:27:29;22.13;;;16.33;;
52126;SDS011;38120;53.176;6.614;2022-10-26T05:29:55;26.17;;;18.73;;
52126;SDS011;38120;53.176;6.614;2022-10-26T05:32:20;23.27;;;16.60;;
52126;SDS011;38120;53.176;6.614;2022-10-26T05:34:46;25.17;;;18.27;;
52126;SDS011;38120;53.176;6.614;2022-10-26T05:37:12;29.57;;;17.47;;
52126;SDS011;38120;53.176;6.614;2022-10-26T05:39:37;32.90;;;19.57;;
52126;SDS011;38120;53.176;6.614;2022-10-26T05:42:03;22.57;;;17.07;;
52126;SDS011;38120;53.176;6.614;2022-10-26T05:44:29;25.30;;;17.03;;
52126;SDS011;38120;53.176;6.614;2022-10-26T05:46:54;25.13;;;18.53;;
52126;SDS011;38120;53.176;6.614;2022-10-26T05:49:20;25.00;;;16.67;;
52126;SDS011;38120;53.176;6.614;2022-10-26T05:51:46;24.57;;;19.13;;
52126;SDS011;38120;53.176;6.614;2022-10-26T05:54:11;24.67;;;17.70;;
52126;SDS011;38120;53.176;6.614;2022-10-26T05:56:38;26.73;;;17.40;;
52126;SDS011;38120;53.176;6.614;2022-10-26T05:59:14;23.15;;;17.02;;
52126;SDS011;38120;53.176;6.614;2022-10-26T06:07:10;30.45;;;17.30;;
52126;SDS011;38120;53.176;6.614;2022-10-26T06:09:38;28.77;;;18.00;;
52126;SDS011;38120;53.176;6.614;2022-10-26T06:12:05;22.83;;;16.10;;
52126;SDS011;38120;53.176;6.614;2022-10-26T06:14:32;25.45;;;18.08;;
52126;SDS011;38120;53.176;6.614;2022-10-26T06:20:17;24.50;;;16.58;;
52126;SDS011;38120;53.176;6.614;2022-10-26T06:26:33;24.70;;;15.40;;
52126;SDS011;38120;53.176;6.614;2022-10-26T06:29:05;24.80;;;15.73;;
52126;SDS011;38120;53.176;6.614;2022-10-26T06:31:44;21.65;;;15.13;;
52126;SDS011;38120;53.176;6.614;2022-10-26T06:34:10;22.63;;;16.77;;
52126;SDS011;38120;53.176;6.614;2022-10-26T06:36:40;21.95;;;15.60;;
52126;SDS011;38120;53.176;6.614;2022-10-26T06:39:08;22.88;;;16.48;;
52126;SDS011;38120;53.176;6.614;2022-10-26T06:41:36;23.33;;;15.30;;
52126;SDS011;38120;53.176;6.614;2022-10-26T06:44:03;25.20;;;15.73;;
52126;SDS011;38120;53.176;6.614;2022-10-26T06:52:12;20.83;;;14.05;;
52126;SDS011;38120;53.176;6.614;2022-10-26T06:57:15;25.20;;;14.70;;
52126;SDS011;38120;53.176;6.614;2022-10-26T06:59:48;19.67;;;14.52;;
52126;SDS011;38120;53.176;6.614;2022-10-26T07:02:14;19.85;;;14.25;;
52126;SDS011;38120;53.176;6.614;2022-10-26T07:04:41;18.98;;;13.45;;
52126;SDS011;38120;53.176;6.614;2022-10-26T07:09:33;22.50;;;13.27;;
52126;SDS011;38120;53.176;6.614;2022-10-26T07:11:59;19.30;;;12.33;;
52126;SDS011;38120;53.176;6.614;2022-10-26T07:14:25;21.73;;;12.20;;
52126;SDS011;38120;53.176;6.614;2022-10-26T07:16:51;17.25;;;12.45;;
52126;SDS011;38120;53.176;6.614;2022-10-26T07:19:17;16.48;;;12.98;;
52126;SDS011;38120;53.176;6.614;2022-10-26T07:21:43;21.93;;;12.13;;
52126;SDS011;38120;53.176;6.614;2022-10-26T07:24:08;21.63;;;10.83;;
52126;SDS011;38120;53.176;6.614;2022-10-26T07:26:34;19.30;;;11.07;;
52126;SDS011;38120;53.176;6.614;2022-10-26T07:29:00;16.77;;;12.13;;
52126;SDS011;38120;53.176;6.614;2022-10-26T07:31:26;16.93;;;11.37;;
52126;SDS011;38120;53.176;6.614;2022-10-26T07:33:53;17.98;;;10.82;;
52126;SDS011;38120;53.176;6.614;2022-10-26T07:36:18;17.27;;;11.53;;
52126;SDS011;38120;53.176;6.614;2022-10-26T07:38:44;19.63;;;10.93;;
52126;SDS011;38120;53.176;6.614;2022-10-26T07:41:10;17.17;;;11.40;;
52126;SDS011;38120;53.176;6.614;2022-10-26T07:43:35;14.70;;;11.33;;
52126;SDS011;38120;53.176;6.614;2022-10-26T07:46:01;19.30;;;11.63;;
52126;SDS011;38120;53.176;6.614;2022-10-26T07:48:27;16.92;;;10.75;;
52126;SDS011;38120;53.176;6.614;2022-10-26T07:50:53;14.93;;;9.67;;
52126;SDS011;38120;53.176;6.614;2022-10-26T07:53:18;19.63;;;11.00;;
52126;SDS011;38120;53.176;6.614;2022-10-26T07:55:51;17.23;;;9.90;;
52126;SDS011;38120;53.176;6.614;2022-10-26T07:58:18;16.02;;;9.32;;
52126;SDS011;38120;53.176;6.614;2022-10-26T08:00:48;13.55;;;9.88;;
52126;SDS011;38120;53.176;6.614;2022-10-26T08:03:14;17.70;;;9.73;;
52126;SDS011;38120;53.176;6.614;2022-10-26T08:05:40;13.88;;;9.60;;
52126;SDS011;38120;53.176;6.614;2022-10-26T08:08:06;14.70;;;9.37;;
52126;SDS011;38120;53.176;6.614;2022-10-26T08:10:32;13.37;;;8.83;;
52126;SDS011;38120;53.176;6.614;2022-10-26T08:12:58;18.25;;;8.85;;
52126;SDS011;38120;53.176;6.614;2022-10-26T08:15:24;12.50;;;9.17;;
52126;SDS011;38120;53.176;6.614;2022-10-26T08:17:49;9.90;;;7.97;;
52126;SDS011;38120;53.176;6.614;2022-10-26T08:20:15;15.57;;;8.90;;
52126;SDS011;38120;53.176;6.614;2022-10-26T08:22:41;16.93;;;9.43;;
52126;SDS011;38120;53.176;6.614;2022-10-26T08:25:07;13.30;;;8.97;;
52126;SDS011;38120;53.176;6.614;2022-10-26T08:27:32;14.77;;;8.02;;
52126;SDS011;38120;53.176;6.614;2022-10-26T08:29:58;13.07;;;8.47;;
52126;SDS011;38120;53.176;6.614;2022-10-26T08:32:24;13.10;;;8.30;;
52126;SDS011;38120;53.176;6.614;2022-10-26T08:34:49;12.40;;;8.07;;
52126;SDS011;38120;53.176;6.614;2022-10-26T08:37:15;16.02;;;8.40;;
52126;SDS011;38120;53.176;6.614;2022-10-26T08:39:41;13.33;;;8.73;;
52126;SDS011;38120;53.176;6.614;2022-10-26T08:42:13;12.03;;;8.13;;
52126;SDS011;38120;53.176;6.614;2022-10-26T08:44:45;11.77;;;7.70;;
52126;SDS011;38120;53.176;6.614;2022-10-26T08:47:17;13.20;;;7.53;;
52126;SDS011;38120;53.176;6.614;2022-10-26T08:52:18;12.15;;;8.13;;
52126;SDS011;38120;53.176;6.614;2022-10-26T08:55:14;12.32;;;6.60;;
52126;SDS011;38120;53.176;6.614;2022-10-26T08:57:43;12.20;;;7.10;;
52126;SDS011;38120;53.176;6.614;2022-10-26T09:00:14;14.05;;;7.10;;
52126;SDS011;38120;53.176;6.614;2022-10-26T09:02:44;15.77;;;7.18;;
52126;SDS011;38120;53.176;6.614;2022-10-26T09:05:15;9.98;;;6.78;;
52126;SDS011;38120;53.176;6.614;2022-10-26T09:07:51;12.15;;;5.85;;
52126;SDS011;38120;53.176;6.614;2022-10-26T09:13:27;9.95;;;5.35;;
52126;SDS011;38120;53.176;6.614;2022-10-26T09:24:15;8.18;;;3.60;;
52126;SDS011;38120;53.176;6.614;2022-10-26T09:26:54;8.13;;;3.75;;
52126;SDS011;38120;53.176;6.614;2022-10-26T09:29:28;8.43;;;3.75;;
52126;SDS011;38120;53.176;6.614;2022-10-26T09:31:59;8.18;;;3.88;;
52126;SDS011;38120;53.176;6.614;2022-10-26T09:34:31;7.82;;;3.33;;
52126;SDS011;38120;53.176;6.614;2022-10-26T09:40:20;7.15;;;3.42;;
52126;SDS011;38120;53.176;6.614;2022-10-26T09:43:19;5.15;;;2.92;;
52126;SDS011;38120;53.176;6.614;2022-10-26T09:45:55;9.27;;;4.10;;
52126;SDS011;38120;53.176;6.614;2022-10-26T09:48:26;5.85;;;3.20;;
52126;SDS011;38120;53.176;6.614;2022-10-26T09:50:53;13.30;;;3.80;;
52126;SDS011;38120;53.176;6.614;2022-10-26T09:53:21;6.63;;;3.00;;
52126;SDS011;38120;53.176;6.614;2022-10-26T09:55:47;9.73;;;4.07;;
52126;SDS011;38120;53.176;6.614;2022-10-26T09:58:28;6.07;;;3.10;;
52126;SDS011;38120;53.176;6.614;2022-10-26T10:00:56;7.90;;;2.97;;
52126;SDS011;38120;53.176;6.614;2022-10-26T10:03:26;9.27;;;3.58;;
52126;SDS011;38120;53.176;6.614;2022-10-26T10:06:14;6.30;;;2.80;;
52126;SDS011;38120;53.176;6.614;2022-10-26T10:09:03;6.32;;;3.50;;
52126;SDS011;38120;53.176;6.614;2022-10-26T10:14:08;5.55;;;3.30;;
52126;SDS011;38120;53.176;6.614;2022-10-26T10:16:38;4.72;;;2.65;;
52126;SDS011;38120;53.176;6.614;2022-10-26T10:21:47;13.02;;;3.38;;
52126;SDS011;38120;53.176;6.614;2022-10-26T10:24:24;6.97;;;3.58;;
52126;SDS011;38120;53.176;6.614;2022-10-26T10:27:37;9.77;;;3.55;;
52126;SDS011;38120;53.176;6.614;2022-10-26T10:29:48;6.90;;;2.88;;
52126;SDS011;38120;53.176;6.614;2022-10-26T10:32:20;6.03;;;3.10;;
52126;SDS011;38120;53.176;6.614;2022-10-26T10:34:56;8.70;;;3.38;;
52126;SDS011;38120;53.176;6.614;2022-10-26T10:37:25;7.82;;;3.67;;
52126;SDS011;38120;53.176;6.614;2022-10-26T10:40:02;6.40;;;3.28;;
52126;SDS011;38120;53.176;6.614;2022-10-26T10:42:32;10.85;;;3.20;;
52126;SDS011;38120;53.176;6.614;2022-10-26T10:44:59;9.82;;;2.75;;
52126;SDS011;38120;53.176;6.614;2022-10-26T10:47:28;7.47;;;2.90;;
52126;SDS011;38120;53.176;6.614;2022-10-26T10:49:57;6.80;;;3.17;;
52126;SDS011;38120;53.176;6.614;2022-10-26T10:52:31;6.72;;;2.55;;
52126;SDS011;38120;53.176;6.614;2022-10-26T10:57:46;11.93;;;3.25;;
52126;SDS011;38120;53.176;6.614;2022-10-26T11:00:35;8.98;;;3.15;;
52126;SDS011;38120;53.176;6.614;2022-10-26T11:08:22;8.02;;;3.42;;
52126;SDS011;38120;53.176;6.614;2022-10-26T11:11:10;9.88;;;3.30;;
52126;SDS011;38120;53.176;6.614;2022-10-26T11:13:50;5.50;;;2.80;;
52126;SDS011;38120;53.176;6.614;2022-10-26T11:16:27;11.13;;;3.17;;
52126;SDS011;38120;53.176;6.614;2022-10-26T11:19:11;9.40;;;3.05;;
52126;SDS011;38120;53.176;6.614;2022-10-26T11:22:01;6.53;;;2.67;;
52126;SDS011;38120;53.176;6.614;2022-10-26T11:24:34;5.07;;;2.80;;
52126;SDS011;38120;53.176;6.614;2022-10-26T11:27:28;5.22;;;2.70;;
52126;SDS011;38120;53.176;6.614;2022-10-26T11:30:17;9.52;;;3.65;;
52126;SDS011;38120;53.176;6.614;2022-10-26T11:32:55;6.38;;;3.10;;
52126;SDS011;38120;53.176;6.614;2022-10-26T11:35:29;6.97;;;3.28;;
52126;SDS011;38120;53.176;6.614;2022-10-26T11:41:06;50.80;;;14.30;;
52126;SDS011;38120;53.176;6.614;2022-10-26T11:43:37;29.08;;;11.85;;
52126;SDS011;38120;53.176;6.614;2022-10-26T11:52:02;309.13;;;78.45;;
52126;SDS011;38120;53.176;6.614;2022-10-26T11:54:36;11.73;;;4.38;;
52126;SDS011;38120;53.176;6.614;2022-10-26T11:57:05;7.75;;;3.30;;
52126;SDS011;38120;53.176;6.614;2022-10-26T11:59:36;7.05;;;3.25;;
52126;SDS011;38120;53.176;6.614;2022-10-26T12:02:14;9.63;;;2.72;;
52126;SDS011;38120;53.176;6.614;2022-10-26T12:07:35;9.15;;;3.53;;
52126;SDS011;38120;53.176;6.614;2022-10-26T12:10:02;10.75;;;3.25;;
52126;SDS011;38120;53.176;6.614;2022-10-26T12:12:40;8.85;;;3.20;;
52126;SDS011;38120;53.176;6.614;2022-10-26T12:15:17;9.45;;;3.60;;
52126;SDS011;38120;53.176;6.614;2022-10-26T12:17:54;9.27;;;3.60;;
52126;SDS011;38120;53.176;6.614;2022-10-26T12:23:16;12.15;;;3.03;;
52126;SDS011;38120;53.176;6.614;2022-10-26T12:25:43;9.20;;;3.92;;
52126;SDS011;38120;53.176;6.614;2022-10-26T12:34:00;5.13;;;2.60;;
52126;SDS011;38120;53.176;6.614;2022-10-26T12:44:38;9.57;;;3.33;;
52126;SDS011;38120;53.176;6.614;2022-10-26T12:55:14;6.63;;;3.22;;
52126;SDS011;38120;53.176;6.614;2022-10-26T13:08:45;7.25;;;3.53;;
52126;SDS011;38120;53.176;6.614;2022-10-26T13:11:18;7.72;;;3.08;;
52126;SDS011;38120;53.176;6.614;2022-10-26T13:14:00;6.47;;;3.08;;
52126;SDS011;38120;53.176;6.614;2022-10-26T13:16:29;9.27;;;3.22;;
52126;SDS011;38120;53.176;6.614;2022-10-26T13:18:55;7.55;;;3.22;;
52126;SDS011;38120;53.176;6.614;2022-10-26T13:21:23;9.70;;;3.10;;
52126;SDS011;38120;53.176;6.614;2022-10-26T13:26:21;9.57;;;3.38;;
52126;SDS011;38120;53.176;6.614;2022-10-26T13:28:50;7.20;;;2.97;;
52126;SDS011;38120;53.176;6.614;2022-10-26T13:36:35;10.75;;;3.45;;
52126;SDS011;38120;53.176;6.614;2022-10-26T13:39:26;6.22;;;3.20;;
52126;SDS011;38120;53.176;6.614;2022-10-26T13:42:03;6.78;;;3.45;;
52126;SDS011;38120;53.176;6.614;2022-10-26T13:47:07;7.45;;;3.80;;
52126;SDS011;38120;53.176;6.614;2022-10-26T13:49:49;8.27;;;4.05;;
52126;SDS011;38120;53.176;6.614;2022-10-26T13:52:28;6.40;;;3.95;;
52126;SDS011;38120;53.176;6.614;2022-10-26T13:58:30;8.77;;;3.95;;
52126;SDS011;38120;53.176;6.614;2022-10-26T14:03:45;8.35;;;4.63;;
52126;SDS011;38120;53.176;6.614;2022-10-26T14:06:21;9.95;;;4.72;;
52126;SDS011;38120;53.176;6.614;2022-10-26T14:09:01;10.88;;;5.03;;
52126;SDS011;38120;53.176;6.614;2022-10-26T14:11:46;10.18;;;5.10;;
52126;SDS011;38120;53.176;6.614;2022-10-26T14:19:27;11.57;;;4.45;;
52126;SDS011;38120;53.176;6.614;2022-10-26T14:21:58;8.35;;;4.97;;
52126;SDS011;38120;53.176;6.614;2022-10-26T14:24:29;8.60;;;4.78;;
52126;SDS011;38120;53.176;6.614;2022-10-26T14:27:00;7.88;;;5.00;;
52126;SDS011;38120;53.176;6.614;2022-10-26T14:29:26;11.10;;;5.68;;
52126;SDS011;38120;53.176;6.614;2022-10-26T14:31:56;9.20;;;4.63;;
52126;SDS011;38120;53.176;6.614;2022-10-26T14:34:21;9.48;;;4.70;;
52126;SDS011;38120;53.176;6.614;2022-10-26T14:39:36;8.30;;;5.20;;
52126;SDS011;38120;53.176;6.614;2022-10-26T14:42:12;12.38;;;6.00;;
52126;SDS011;38120;53.176;6.614;2022-10-26T14:44:49;6.85;;;4.10;;
52126;SDS011;38120;53.176;6.614;2022-10-26T14:47:17;9.48;;;5.13;;
52126;SDS011;38120;53.176;6.614;2022-10-26T14:49:48;10.10;;;5.65;;
52126;SDS011;38120;53.176;6.614;2022-10-26T14:52:15;22.23;;;5.43;;
52126;SDS011;38120;53.176;6.614;2022-10-26T14:55:00;10.65;;;4.90;;
52126;SDS011;38120;53.176;6.614;2022-10-26T14:57:35;8.95;;;4.80;;
52126;SDS011;38120;53.176;6.614;2022-10-26T15:02:39;9.05;;;5.25;;
52126;SDS011;38120;53.176;6.614;2022-10-26T15:05:20;10.02;;;4.90;;
52126;SDS011;38120;53.176;6.614;2022-10-26T15:07:50;8.73;;;5.30;;
52126;SDS011;38120;53.176;6.614;2022-10-26T15:13:07;11.27;;;5.60;;
52126;SDS011;38120;53.176;6.614;2022-10-26T15:15:39;9.50;;;6.28;;
52126;SDS011;38120;53.176;6.614;2022-10-26T15:18:05;13.93;;;6.57;;
52126;SDS011;38120;53.176;6.614;2022-10-26T15:20:45;8.93;;;6.10;;
52126;SDS011;38120;53.176;6.614;2022-10-26T15:23:14;10.95;;;6.70;;
52126;SDS011;38120;53.176;6.614;2022-10-26T15:28:21;11.77;;;6.68;;
52126;SDS011;38120;53.176;6.614;2022-10-26T15:34:21;13.40;;;6.32;;
52126;SDS011;38120;53.176;6.614;2022-10-26T15:36:28;10.43;;;7.28;;
52126;SDS011;38120;53.176;6.614;2022-10-26T15:38:57;12.05;;;7.90;;
52126;SDS011;38120;53.176;6.614;2022-10-26T15:41:30;9.45;;;7.45;;
52126;SDS011;38120;53.176;6.614;2022-10-26T15:43:59;13.20;;;7.65;;
52126;SDS011;38120;53.176;6.614;2022-10-26T15:46:33;12.18;;;7.55;;
52126;SDS011;38120;53.176;6.614;2022-10-26T15:49:03;14.05;;;7.45;;
52126;SDS011;38120;53.176;6.614;2022-10-26T15:51:30;16.15;;;8.07;;
52126;SDS011;38120;53.176;6.614;2022-10-26T15:53:57;13.38;;;7.20;;
52126;SDS011;38120;53.176;6.614;2022-10-26T15:56:23;10.27;;;7.68;;
52126;SDS011;38120;53.176;6.614;2022-10-26T15:58:51;11.02;;;7.35;;
52126;SDS011;38120;53.176;6.614;2022-10-26T16:01:19;9.25;;;7.22;;
52126;SDS011;38120;53.176;6.614;2022-10-26T16:03:47;10.20;;;6.20;;
52126;SDS011;38120;53.176;6.614;2022-10-26T16:06:18;8.82;;;6.53;;
52126;SDS011;38120;53.176;6.614;2022-10-26T16:08:48;14.88;;;6.75;;
52126;SDS011;38120;53.176;6.614;2022-10-26T16:11:16;9.90;;;6.65;;
52126;SDS011;38120;53.176;6.614;2022-10-26T16:13:42;12.30;;;6.63;;
52126;SDS011;38120;53.176;6.614;2022-10-26T16:16:09;11.23;;;6.00;;
52126;SDS011;38120;53.176;6.614;2022-10-26T16:18:37;10.68;;;6.22;;
52126;SDS011;38120;53.176;6.614;2022-10-26T16:21:03;12.50;;;6.22;;
52126;SDS011;38120;53.176;6.614;2022-10-26T16:23:28;9.77;;;6.30;;
52126;SDS011;38120;53.176;6.614;2022-10-26T16:25:54;12.32;;;6.43;;
52126;SDS011;38120;53.176;6.614;2022-10-26T16:28:20;12.55;;;7.30;;
52126;SDS011;38120;53.176;6.614;2022-10-26T16:30:45;9.60;;;5.97;;
52126;SDS011;38120;53.176;6.614;2022-10-26T16:33:12;14.98;;;6.07;;
52126;SDS011;38120;53.176;6.614;2022-10-26T16:38:03;12.45;;;6.25;;
52126;SDS011;38120;53.176;6.614;2022-10-26T16:40:29;9.13;;;6.30;;
52126;SDS011;38120;53.176;6.614;2022-10-26T16:42:55;8.75;;;6.28;;
52126;SDS011;38120;53.176;6.614;2022-10-26T16:45:20;9.48;;;6.00;;
52126;SDS011;38120;53.176;6.614;2022-10-26T16:47:46;11.48;;;6.78;;
52126;SDS011;38120;53.176;6.614;2022-10-26T16:50:12;9.90;;;6.05;;
52126;SDS011;38120;53.176;6.614;2022-10-26T16:55:05;8.82;;;6.25;;
52126;SDS011;38120;53.176;6.614;2022-10-26T16:57:33;9.07;;;6.20;;
52126;SDS011;38120;53.176;6.614;2022-10-26T16:59:59;7.72;;;5.90;;
52126;SDS011;38120;53.176;6.614;2022-10-26T17:02:25;11.20;;;6.40;;
52126;SDS011;38120;53.176;6.614;2022-10-26T17:04:51;11.25;;;6.05;;
52126;SDS011;38120;53.176;6.614;2022-10-26T17:07:17;10.80;;;5.35;;
52126;SDS011;38120;53.176;6.614;2022-10-26T17:09:42;9.25;;;5.95;;
52126;SDS011;38120;53.176;6.614;2022-10-26T17:12:08;7.82;;;4.95;;
52126;SDS011;38120;53.176;6.614;2022-10-26T17:14:35;10.02;;;5.75;;
52126;SDS011;38120;53.176;6.614;2022-10-26T17:17:02;8.05;;;5.35;;
52126;SDS011;38120;53.176;6.614;2022-10-26T17:19:28;9.52;;;5.43;;
52126;SDS011;38120;53.176;6.614;2022-10-26T17:21:53;8.10;;;5.72;;
52126;SDS011;38120;53.176;6.614;2022-10-26T17:24:19;10.50;;;6.13;;
52126;SDS011;38120;53.176;6.614;2022-10-26T17:26:45;12.55;;;6.43;;
52126;SDS011;38120;53.176;6.614;2022-10-26T17:29:11;9.45;;;6.07;;
52126;SDS011;38120;53.176;6.614;2022-10-26T17:34:03;9.50;;;5.82;;
52126;SDS011;38120;53.176;6.614;2022-10-26T17:36:29;7.10;;;5.95;;
52126;SDS011;38120;53.176;6.614;2022-10-26T17:38:55;10.68;;;6.40;;
52126;SDS011;38120;53.176;6.614;2022-10-26T17:41:21;10.40;;;6.32;;
52126;SDS011;38120;53.176;6.614;2022-10-26T17:43:47;8.90;;;5.75;;